Time,TemperatureF,DewpointF,PressureIn,WindDirection,WindDirectionDegrees,WindSpeedMPH,WindSpeedGustMPH,Humidity,HourlyPrecipIn,Conditions,Clouds,dailyrainin,SoftwareType,DateUTC
2013-12-12 00:02:00,47.6,23.9,30.09,NE,55,0.0,0.0,39,0.00,,---,0.00,VWS V14.01,2013-12-12 08:02:00,
2013-12-12 00:12:00,46.8,24.4,30.09,NE,55,0.0,0.0,41,0.00,,---,0.00,VWS V14.01,2013-12-12 08:12:00,
2013-12-12 00:22:00,46.4,24.6,30.08,NE,55,0.0,0.0,42,0.00,,---,0.00,VWS V14.01,2013-12-12 08:22:00,
2013-12-12 00:27:00,46.1,23.7,30.08,NE,55,0.0,0.0,41,0.00,,---,0.00,VWS V14.01,2013-12-12 08:27:00,
2013-12-12 00:37:00,46.2,22.6,30.08,NE,55,0.0,0.0,39,0.00,,---,0.00,VWS V14.01,2013-12-12 08:37:00,
2013-12-12 00:42:00,46.7,21.8,30.08,NE,55,0.0,0.0,37,0.00,,---,0.00,VWS V14.01,2013-12-12 08:42:00,
2013-12-12 00:52:00,48.3,22.6,30.08,NE,55,0.0,0.0,36,0.00,,---,0.00,VWS V14.01,2013-12-12 08:52:00,
2013-12-12 01:02:00,49.8,23.3,30.07,NE,55,0.0,0.0,35,0.00,,---,0.00,VWS V14.01,2013-12-12 09:02:00,
2013-12-12 01:07:00,50.1,22.8,30.07,NE,55,0.0,0.0,34,0.00,,---,0.00,VWS V14.01,2013-12-12 09:07:00,
2013-12-12 01:12:00,50.4,23.1,30.07,NE,55,0.0,0.0,34,0.00,,---,0.00,VWS V14.01,2013-12-12 09:12:00,
2013-12-12 01:17:00,50.5,23.2,30.07,NE,55,0.0,0.0,34,0.00,,---,0.00,VWS V14.01,2013-12-12 09:17:00,
2013-12-12 01:22:00,50.7,23.4,30.07,NE,55,0.0,0.0,34,0.00,,---,0.00,VWS V14.01,2013-12-12 09:22:00,
2013-12-12 01:27:00,50.8,23.5,30.07,NE,55,0.0,0.0,34,0.00,,---,0.00,VWS V14.01,2013-12-12 09:27:00,
2013-12-12 01:32:00,50.8,23.5,30.07,NE,55,0.0,0.0,34,0.00,,---,0.00,VWS V14.01,2013-12-12 09:32:00,
2013-12-12 01:37:00,50.7,23.4,30.07,NE,55,0.0,0.0,34,0.00,,---,0.00,VWS V14.01,2013-12-12 09:37:00,
2013-12-12 01:42:00,50.7,23.4,30.07,NE,55,0.0,0.0,34,0.00,,---,0.00,VWS V14.01,2013-12-12 09:42:00,
2013-12-12 01:47:00,50.7,23.4,30.07,NE,55,0.0,0.0,34,0.00,,---,0.00,VWS V14.01,2013-12-12 09:47:00,
2013-12-12 01:57:00,50.7,23.4,30.07,NE,55,0.0,0.0,34,0.00,,---,0.00,VWS V14.01,2013-12-12 09:57:00,
2013-12-12 02:02:00,50.7,23.4,30.07,NE,55,0.0,0.0,34,0.00,,---,0.00,VWS V14.01,2013-12-12 10:02:00,
2013-12-12 02:12:00,50.8,23.5,30.07,NE,55,0.0,0.0,34,0.00,,---,0.00,VWS V14.01,2013-12-12 10:12:00,
2013-12-12 02:22:00,51.0,22.9,30.06,NE,55,0.0,0.0,33,0.00,,---,0.00,VWS V14.01,2013-12-12 10:22:00,
2013-12-12 02:27:00,51.1,23.0,30.06,NE,55,0.0,0.0,33,0.00,,---,0.00,VWS V14.01,2013-12-12 10:27:00,
2013-12-12 02:37:00,51.0,22.9,30.06,NE,55,0.0,0.0,33,0.00,,---,0.00,VWS V14.01,2013-12-12 10:37:00,
2013-12-12 02:42:00,51.0,22.9,30.06,NE,55,0.0,0.0,33,0.00,,---,0.00,VWS V14.01,2013-12-12 10:42:00,
2013-12-12 02:47:00,51.0,22.9,30.05,NE,55,0.0,0.0,33,0.00,,---,0.00,VWS V14.01,2013-12-12 10:47:00,
2013-12-12 02:52:00,51.0,22.9,30.05,NE,55,0.0,0.0,33,0.00,,---,0.00,VWS V14.01,2013-12-12 10:52:00,
2013-12-12 02:57:00,51.0,22.9,30.05,NE,55,0.0,0.0,33,0.00,,---,0.00,VWS V14.01,2013-12-12 10:57:00,
2013-12-12 03:02:00,51.0,22.2,30.05,NE,55,0.0,0.0,32,0.00,,---,0.00,VWS V14.01,2013-12-12 11:02:00,
2013-12-12 03:12:00,51.4,22.5,30.05,NE,55,0.0,0.0,32,0.00,,---,0.00,VWS V14.01,2013-12-12 11:12:00,
2013-12-12 03:17:00,51.7,22.8,30.05,NE,55,0.0,0.0,32,0.00,,---,0.00,VWS V14.01,2013-12-12 11:17:00,
2013-12-12 03:27:00,52.6,22.9,30.05,NE,55,0.0,0.0,31,0.00,,---,0.00,VWS V14.01,2013-12-12 11:27:00,
2013-12-12 03:37:00,53.1,22.5,30.05,NE,55,0.0,0.0,30,0.00,,---,0.00,VWS V14.01,2013-12-12 11:37:00,
2013-12-12 03:42:00,53.2,22.6,30.05,NE,55,0.0,0.0,30,0.00,,---,0.00,VWS V14.01,2013-12-12 11:42:00,
2013-12-12 03:52:00,53.2,23.4,30.05,NE,55,0.0,0.0,31,0.00,,---,0.00,VWS V14.01,2013-12-12 11:52:00,
2013-12-12 03:57:00,53.2,23.4,30.05,NE,55,0.0,0.0,31,0.00,,---,0.00,VWS V14.01,2013-12-12 11:57:00,
2013-12-12 04:02:00,53.1,23.3,30.05,NE,55,0.0,0.0,31,0.00,,---,0.00,VWS V14.01,2013-12-12 12:02:00,
2013-12-12 04:07:00,52.9,23.1,30.05,NE,55,0.0,0.0,31,0.00,,---,0.00,VWS V14.01,2013-12-12 12:07:00,
2013-12-12 04:12:00,52.8,23.8,30.05,NE,55,0.0,0.0,32,0.00,,---,0.00,VWS V14.01,2013-12-12 12:12:00,
2013-12-12 04:17:00,52.5,23.5,30.05,NE,55,0.0,0.0,32,0.00,,---,0.00,VWS V14.01,2013-12-12 12:17:00,
2013-12-12 04:22:00,52.3,23.3,30.05,NE,55,0.0,0.0,32,0.00,,---,0.00,VWS V14.01,2013-12-12 12:22:00,
2013-12-12 04:27:00,52.2,24.0,30.05,NE,55,0.0,0.0,33,0.00,,---,0.00,VWS V14.01,2013-12-12 12:27:00,
2013-12-12 04:32:00,52.0,23.8,30.06,NE,55,0.0,0.0,33,0.00,,---,0.00,VWS V14.01,2013-12-12 12:32:00,
2013-12-12 04:42:00,51.6,24.2,30.06,NE,55,0.0,0.0,34,0.00,,---,0.00,VWS V14.01,2013-12-12 12:42:00,
2013-12-12 04:47:00,51.4,24.0,30.06,NE,55,0.0,0.0,34,0.00,,---,0.00,VWS V14.01,2013-12-12 12:47:00,
2013-12-12 04:52:00,51.1,23.7,30.06,NE,55,0.0,0.0,34,0.00,,---,0.00,VWS V14.01,2013-12-12 12:52:00,
2013-12-12 04:57:00,51.0,23.6,30.06,NE,55,0.0,0.0,34,0.00,,---,0.00,VWS V14.01,2013-12-12 12:57:00,
2013-12-12 05:07:00,50.5,23.9,30.06,NE,55,0.0,0.0,35,0.00,,---,0.00,VWS V14.01,2013-12-12 13:07:00,
2013-12-12 05:12:00,50.4,23.8,30.06,NE,55,0.0,0.0,35,0.00,,---,0.00,VWS V14.01,2013-12-12 13:12:00,
2013-12-12 05:17:00,50.2,24.3,30.06,NE,55,0.0,0.0,36,0.00,,---,0.00,VWS V14.01,2013-12-12 13:17:00,
2013-12-12 05:22:00,50.1,24.2,30.06,NE,55,0.0,0.0,36,0.00,,---,0.00,VWS V14.01,2013-12-12 13:22:00,
2013-12-12 05:32:00,49.8,23.9,30.06,NE,55,0.0,0.0,36,0.00,,---,0.00,VWS V14.01,2013-12-12 13:32:00,
2013-12-12 05:37:00,49.8,23.9,30.06,NE,55,0.0,0.0,36,0.00,,---,0.00,VWS V14.01,2013-12-12 13:37:00,
2013-12-12 05:47:00,49.6,23.8,30.07,NE,55,0.0,0.0,36,0.00,,---,0.00,VWS V14.01,2013-12-12 13:47:00,
2013-12-12 05:52:00,49.5,23.7,30.07,NE,55,0.0,0.0,36,0.00,,---,0.00,VWS V14.01,2013-12-12 13:52:00,
2013-12-12 05:57:00,49.4,23.6,30.07,NE,55,0.0,0.0,36,0.00,,---,0.00,VWS V14.01,2013-12-12 13:57:00,
2013-12-12 06:07:00,49.4,23.6,30.07,NE,55,0.0,0.0,36,0.00,,---,0.00,VWS V14.01,2013-12-12 14:07:00,
2013-12-12 06:12:00,49.4,23.6,30.07,NE,55,0.0,0.0,36,0.00,,---,0.00,VWS V14.01,2013-12-12 14:12:00,
2013-12-12 06:22:00,49.1,25.2,30.08,NE,55,0.0,0.0,39,0.00,,---,0.00,VWS V14.01,2013-12-12 14:22:00,
2013-12-12 06:27:00,48.8,25.6,30.08,NE,55,0.0,0.0,40,0.00,,---,0.00,VWS V14.01,2013-12-12 14:27:00,
2013-12-12 06:32:00,48.5,25.9,30.08,NE,55,0.0,0.0,41,0.00,,---,0.00,VWS V14.01,2013-12-12 14:32:00,
2013-12-12 06:37:00,48.2,25.6,30.08,NE,55,0.0,0.0,41,0.00,,---,0.00,VWS V14.01,2013-12-12 14:37:00,
2013-12-12 06:42:00,47.7,25.2,30.08,NE,55,0.0,0.0,41,0.00,,---,0.00,VWS V14.01,2013-12-12 14:42:00,
2013-12-12 06:52:00,47.3,26.0,30.09,NE,55,0.0,0.0,43,0.00,,---,0.00,VWS V14.01,2013-12-12 14:52:00,
2013-12-12 06:57:00,47.0,25.7,30.09,NE,55,0.0,0.0,43,0.00,,---,0.00,VWS V14.01,2013-12-12 14:57:00,
2013-12-12 07:02:00,46.8,26.6,30.09,NE,55,0.0,0.0,45,0.00,,---,0.00,VWS V14.01,2013-12-12 15:02:00,
2013-12-12 07:07:00,46.5,26.9,30.09,NE,55,0.0,0.0,46,0.00,,---,0.00,VWS V14.01,2013-12-12 15:07:00,
2013-12-12 07:17:00,46.0,26.9,30.10,ENE,64,0.0,0.0,47,0.00,,---,0.00,VWS V14.01,2013-12-12 15:17:00,
2013-12-12 07:22:00,45.7,27.1,30.10,ENE,64,0.0,0.0,48,0.00,,---,0.00,VWS V14.01,2013-12-12 15:22:00,
2013-12-12 07:32:00,45.4,27.9,30.10,ENE,64,0.0,0.0,50,0.00,,---,0.00,VWS V14.01,2013-12-12 15:32:00,
2013-12-12 07:37:00,45.2,27.7,30.10,ENE,64,0.0,0.0,50,0.00,,---,0.00,VWS V14.01,2013-12-12 15:37:00,
2013-12-12 07:47:00,45.5,28.9,30.10,ENE,64,0.0,0.0,52,0.00,,---,0.00,VWS V14.01,2013-12-12 15:47:00,
2013-12-12 07:52:00,45.7,28.6,30.10,ENE,64,0.0,0.0,51,0.00,,---,0.00,VWS V14.01,2013-12-12 15:52:00,
2013-12-12 07:57:00,45.8,28.2,30.10,ENE,65,0.0,0.0,50,0.00,,---,0.00,VWS V14.01,2013-12-12 15:57:00,
2013-12-12 08:02:00,50.7,26.7,30.10,East,80,0.0,0.0,39,0.00,,---,0.00,VWS V14.01,2013-12-12 16:02:00,
2013-12-12 08:12:00,55.0,27.2,30.10,SE,130,0.0,0.0,34,0.00,,---,0.00,VWS V14.01,2013-12-12 16:12:00,
2013-12-12 08:17:00,55.7,27.1,30.10,East,93,0.0,0.0,33,0.00,,---,0.00,VWS V14.01,2013-12-12 16:17:00,
2013-12-12 08:22:00,55.4,26.8,30.10,SE,133,0.0,0.0,33,0.00,,---,0.00,VWS V14.01,2013-12-12 16:22:00,
2013-12-12 08:27:00,54.7,26.9,30.10,East,100,0.0,0.0,34,0.00,,---,0.00,VWS V14.01,2013-12-12 16:27:00,
2013-12-12 08:37:00,54.7,27.6,30.10,East,88,0.0,0.0,35,0.00,,---,0.00,VWS V14.01,2013-12-12 16:37:00,
2013-12-12 08:42:00,56.0,27.3,30.10,ESE,119,0.0,0.0,33,0.00,,---,0.00,VWS V14.01,2013-12-12 16:42:00,
2013-12-12 08:47:00,57.5,27.9,30.10,ESE,103,0.0,0.0,32,0.00,,---,0.00,VWS V14.01,2013-12-12 16:47:00,
2013-12-12 08:52:00,58.6,28.9,30.10,ESE,110,0.0,0.0,32,0.00,,---,0.00,VWS V14.01,2013-12-12 16:52:00,
2013-12-12 08:57:00,59.3,27.9,30.10,East,97,0.0,0.0,30,0.00,,---,0.00,VWS V14.01,2013-12-12 16:57:00,
2013-12-12 09:07:00,61.2,28.7,30.10,ESE,116,0.0,0.0,29,0.00,,---,0.00,VWS V14.01,2013-12-12 17:07:00,
2013-12-12 09:12:00,62.0,27.7,30.10,SE,124,0.0,1.0,27,0.00,,---,0.00,VWS V14.01,2013-12-12 17:12:00,
2013-12-12 09:17:00,62.4,28.0,30.10,SE,130,8.0,8.0,27,0.00,,---,0.00,VWS V14.01,2013-12-12 17:17:00,
2013-12-12 09:22:00,62.9,28.4,30.10,East,95,0.0,8.0,27,0.00,,---,0.00,VWS V14.01,2013-12-12 17:22:00,
2013-12-12 09:27:00,63.5,29.0,30.10,SSE,150,0.0,0.0,27,0.00,,---,0.00,VWS V14.01,2013-12-12 17:27:00,
2013-12-12 09:37:00,64.2,29.5,30.10,East,86,0.0,6.0,27,0.00,,---,0.00,VWS V14.01,2013-12-12 17:37:00,
2013-12-12 09:42:00,64.5,28.9,30.10,ESE,116,0.0,8.0,26,0.00,,---,0.00,VWS V14.01,2013-12-12 17:42:00,
2013-12-12 09:52:00,66.0,31.1,30.10,SE,145,7.0,8.0,27,0.00,,---,0.00,VWS V14.01,2013-12-12 17:52:00,
2013-12-12 09:57:00,66.1,30.2,30.10,SSE,155,2.0,7.0,26,0.00,,---,0.00,VWS V14.01,2013-12-12 17:57:00,
2013-12-12 10:02:00,66.8,29.9,30.10,SSE,148,0.0,7.0,25,0.00,,---,0.00,VWS V14.01,2013-12-12 18:02:00,
2013-12-12 10:07:00,67.1,30.1,30.10,SE,131,3.0,8.0,25,0.00,,---,0.00,VWS V14.01,2013-12-12 18:07:00,
2013-12-12 10:12:00,67.3,29.3,30.10,SE,124,0.0,12.0,24,0.00,,---,0.00,VWS V14.01,2013-12-12 18:12:00,
2013-12-12 10:17:00,67.6,29.6,30.10,SSE,164,0.0,11.0,24,0.00,,---,0.00,VWS V14.01,2013-12-12 18:17:00,
2013-12-12 10:27:00,68.1,30.0,30.10,SSE,150,2.0,10.0,24,0.00,,---,0.00,VWS V14.01,2013-12-12 18:27:00,
2013-12-12 10:37:00,68.8,28.4,30.09,ESE,120,1.0,10.0,22,0.00,,---,0.00,VWS V14.01,2013-12-12 18:37:00,
2013-12-12 10:42:00,68.9,28.5,30.09,SE,140,0.0,6.0,22,0.00,,---,0.00,VWS V14.01,2013-12-12 18:42:00,
2013-12-12 10:47:00,69.6,30.2,30.09,ESE,119,0.0,6.0,23,0.00,,---,0.00,VWS V14.01,2013-12-12 18:47:00,
2013-12-12 10:57:00,70.1,28.4,30.09,SE,137,0.0,10.0,21,0.00,,---,0.00,VWS V14.01,2013-12-12 18:57:00,
2013-12-12 11:02:00,70.1,29.5,30.08,SE,140,10.0,10.0,22,0.00,,---,0.00,VWS V14.01,2013-12-12 19:02:00,
2013-12-12 11:07:00,69.9,28.2,30.08,East,95,0.0,11.0,21,0.00,,---,0.00,VWS V14.01,2013-12-12 19:07:00,
2013-12-12 11:12:00,70.3,28.5,30.08,SSW,195,1.0,12.0,21,0.00,,---,0.00,VWS V14.01,2013-12-12 19:12:00,
2013-12-12 11:17:00,70.3,29.7,30.09,NE,42,2.0,13.0,22,0.00,,---,0.00,VWS V14.01,2013-12-12 19:17:00,
2013-12-12 11:22:00,70.4,28.6,30.09,SE,145,0.0,9.0,21,0.00,,---,0.00,VWS V14.01,2013-12-12 19:22:00,
2013-12-12 11:27:00,70.9,29.0,30.09,SSE,160,0.0,7.0,21,0.00,,---,0.00,VWS V14.01,2013-12-12 19:27:00,
2013-12-12 11:37:00,71.6,30.8,30.08,East,93,0.0,6.0,22,0.00,,---,0.00,VWS V14.01,2013-12-12 19:37:00,
2013-12-12 11:47:00,71.6,29.6,30.07,SSE,148,0.0,0.0,21,0.00,,---,0.00,VWS V14.01,2013-12-12 19:47:00,
2013-12-12 11:52:00,71.5,30.7,30.07,SE,138,0.0,8.0,22,0.00,,---,0.00,VWS V14.01,2013-12-12 19:52:00,
2013-12-12 11:57:00,71.8,29.8,30.07,SSE,161,0.0,7.0,21,0.00,,---,0.00,VWS V14.01,2013-12-12 19:57:00,
2013-12-12 12:02:00,71.8,28.6,30.06,SSE,147,0.0,3.0,20,0.00,,---,0.00,VWS V14.01,2013-12-12 20:02:00,
2013-12-12 12:07:00,72.1,30.0,30.06,North,357,0.0,0.0,21,0.00,,---,0.00,VWS V14.01,2013-12-12 20:07:00,
2013-12-12 12:12:00,72.3,29.0,30.06,SSE,150,0.0,3.0,20,0.00,,---,0.00,VWS V14.01,2013-12-12 20:12:00,
2013-12-12 12:22:00,72.7,31.7,30.05,ESE,109,0.0,3.0,22,0.00,,---,0.00,VWS V14.01,2013-12-12 20:22:00,
2013-12-12 12:32:00,73.7,30.2,30.04,SSE,154,0.0,0.0,20,0.00,,---,0.00,VWS V14.01,2013-12-12 20:32:00,
2013-12-12 12:37:00,73.5,30.0,30.04,SE,131,5.0,5.0,20,0.00,,---,0.00,VWS V14.01,2013-12-12 20:37:00,
2013-12-12 12:42:00,73.0,30.8,30.04,ESE,116,0.0,6.0,21,0.00,,---,0.00,VWS V14.01,2013-12-12 20:42:00,
2013-12-12 12:52:00,73.3,31.0,30.04,ESE,116,0.0,3.0,21,0.00,,---,0.00,VWS V14.01,2013-12-12 20:52:00,
2013-12-12 13:02:00,73.3,29.8,30.03,ESE,117,0.0,1.0,20,0.00,,---,0.00,VWS V14.01,2013-12-12 21:02:00,
2013-12-12 13:12:00,73.9,31.5,30.03,SSE,168,0.0,0.0,21,0.00,,---,0.00,VWS V14.01,2013-12-12 21:12:00,
2013-12-12 13:22:00,72.5,36.7,30.03,SW,230,0.0,1.0,27,0.00,,---,0.00,VWS V14.01,2013-12-12 21:22:00,
2013-12-12 13:27:00,72.7,39.5,30.03,SSW,210,0.0,1.0,30,0.00,,---,0.00,VWS V14.01,2013-12-12 21:27:00,
2013-12-12 13:32:00,71.3,39.1,30.03,West,265,0.0,7.0,31,0.00,,---,0.00,VWS V14.01,2013-12-12 21:32:00,
2013-12-12 13:37:00,71.3,40.7,30.03,SSW,192,0.0,1.0,33,0.00,,---,0.00,VWS V14.01,2013-12-12 21:37:00,
2013-12-12 13:42:00,70.8,39.5,30.03,SSW,212,10.0,10.0,32,0.00,,---,0.00,VWS V14.01,2013-12-12 21:42:00,
2013-12-12 13:47:00,69.9,39.5,30.02,WSW,243,0.0,10.0,33,0.00,,---,0.00,VWS V14.01,2013-12-12 21:47:00,
2013-12-12 13:52:00,70.1,41.9,30.02,SW,224,0.0,3.0,36,0.00,,---,0.00,VWS V14.01,2013-12-12 21:52:00,
2013-12-12 14:02:00,69.8,41.7,30.02,WSW,248,2.0,3.0,36,0.00,,---,0.00,VWS V14.01,2013-12-12 22:02:00,
2013-12-12 14:07:00,69.9,42.5,30.02,WSW,244,5.0,5.0,37,0.00,,---,0.00,VWS V14.01,2013-12-12 22:07:00,
2013-12-12 14:12:00,70.1,41.9,30.02,West,264,0.0,8.0,36,0.00,,---,0.00,VWS V14.01,2013-12-12 22:12:00,
2013-12-12 14:22:00,70.3,41.4,30.01,SW,224,0.0,1.0,35,0.00,,---,0.00,VWS V14.01,2013-12-12 22:22:00,
2013-12-12 14:27:00,69.9,42.5,30.01,WSW,250,0.0,1.0,37,0.00,,---,0.00,VWS V14.01,2013-12-12 22:27:00,
2013-12-12 14:32:00,69.4,42.7,30.02,SSW,193,0.0,1.0,38,0.00,,---,0.00,VWS V14.01,2013-12-12 22:32:00,
2013-12-12 14:37:00,68.9,41.6,30.02,WSW,241,0.0,6.0,37,0.00,,---,0.00,VWS V14.01,2013-12-12 22:37:00,
2013-12-12 14:42:00,68.8,40.8,30.02,SW,229,0.0,10.0,36,0.00,,---,0.00,VWS V14.01,2013-12-12 22:42:00,
2013-12-12 14:47:00,68.6,40.6,30.02,West,270,1.0,3.0,36,0.00,,---,0.00,VWS V14.01,2013-12-12 22:47:00,
2013-12-12 14:52:00,68.6,39.9,30.02,SSW,193,0.0,7.0,35,0.00,,---,0.00,VWS V14.01,2013-12-12 22:52:00,
2013-12-12 15:02:00,67.6,38.3,30.02,WSW,244,4.0,7.0,34,0.00,,---,0.00,VWS V14.01,2013-12-12 23:02:00,
2013-12-12 15:07:00,67.1,37.1,30.02,SW,232,0.0,7.0,33,0.00,,---,0.00,VWS V14.01,2013-12-12 23:07:00,
2013-12-12 15:17:00,66.4,37.2,30.02,SW,217,7.0,7.0,34,0.00,,---,0.00,VWS V14.01,2013-12-12 23:17:00,
2013-12-12 15:22:00,66.1,37.7,30.02,SSW,210,0.0,7.0,35,0.00,,---,0.00,VWS V14.01,2013-12-12 23:22:00,
2013-12-12 15:27:00,66.0,38.3,30.02,SSW,196,0.0,1.0,36,0.00,,---,0.00,VWS V14.01,2013-12-12 23:27:00,
2013-12-12 15:32:00,65.6,38.7,30.02,SSW,212,0.0,4.0,37,0.00,,---,0.00,VWS V14.01,2013-12-12 23:32:00,
2013-12-12 15:42:00,65.0,39.5,30.02,SW,232,0.0,8.0,39,0.00,,---,0.00,VWS V14.01,2013-12-12 23:42:00,
2013-12-12 15:47:00,64.5,40.3,30.03,SW,216,0.0,3.0,41,0.00,,---,0.00,VWS V14.01,2013-12-12 23:47:00,
2013-12-12 15:52:00,64.0,38.6,30.03,SW,234,0.0,3.0,39,0.00,,---,0.00,VWS V14.01,2013-12-12 23:52:00,
2013-12-12 15:57:00,63.7,40.2,30.03,SSW,205,0.0,3.0,42,0.00,,---,0.00,VWS V14.01,2013-12-12 23:57:00,
2013-12-12 16:07:00,62.6,41.5,30.04,SSE,168,0.0,1.0,46,0.00,,---,0.00,VWS V14.01,2013-12-13 00:07:00,
2013-12-12 16:12:00,62.6,42.7,30.04,South,179,0.0,0.0,48,0.00,,---,0.00,VWS V14.01,2013-12-13 00:12:00,
2013-12-12 16:17:00,62.7,42.8,30.05,South,178,0.0,0.0,48,0.00,,---,0.00,VWS V14.01,2013-12-13 00:17:00,
2013-12-12 16:22:00,62.7,42.8,30.05,South,178,0.0,0.0,48,0.00,,---,0.00,VWS V14.01,2013-12-13 00:22:00,
2013-12-12 16:27:00,62.6,43.2,30.05,South,178,0.0,0.0,49,0.00,,---,0.00,VWS V14.01,2013-12-13 00:27:00,
2013-12-12 16:32:00,62.4,43.0,30.05,South,178,0.0,0.0,49,0.00,,---,0.00,VWS V14.01,2013-12-13 00:32:00,
2013-12-12 16:42:00,61.6,43.3,30.05,South,178,0.0,0.0,51,0.00,,---,0.00,VWS V14.01,2013-12-13 00:42:00,
2013-12-12 16:52:00,60.5,42.8,30.06,South,178,0.0,0.0,52,0.00,,---,0.00,VWS V14.01,2013-12-13 00:52:00,
2013-12-12 16:57:00,59.9,42.7,30.06,South,178,0.0,0.0,53,0.00,,---,0.00,VWS V14.01,2013-12-13 00:57:00,
2013-12-12 17:02:00,59.3,42.7,30.06,South,179,0.0,0.0,54,0.00,,---,0.00,VWS V14.01,2013-12-13 01:02:00,
2013-12-12 17:12:00,58.3,42.2,30.06,South,179,0.0,0.0,55,0.00,,---,0.00,VWS V14.01,2013-12-13 01:12:00,
2013-12-12 17:17:00,57.6,42.0,30.06,South,179,0.0,0.0,56,0.00,,---,0.00,VWS V14.01,2013-12-13 01:17:00,
2013-12-12 17:27:00,56.5,41.5,30.06,South,179,0.0,0.0,57,0.00,,---,0.00,VWS V14.01,2013-12-13 01:27:00,
2013-12-12 17:37:00,55.3,40.8,30.07,South,179,0.0,0.0,58,0.00,,---,0.00,VWS V14.01,2013-12-13 01:37:00,
2013-12-12 17:42:00,54.7,40.7,30.07,South,179,0.0,0.0,59,0.00,,---,0.00,VWS V14.01,2013-12-13 01:42:00,
2013-12-12 17:47:00,54.2,41.1,30.07,South,179,0.0,0.0,61,0.00,,---,0.00,VWS V14.01,2013-12-13 01:47:00,
2013-12-12 17:52:00,53.6,40.5,30.07,South,178,0.0,0.0,61,0.00,,---,0.00,VWS V14.01,2013-12-13 01:52:00,
2013-12-12 18:02:00,52.6,40.4,30.07,ENE,65,0.0,0.0,63,0.00,,---,0.00,VWS V14.01,2013-12-13 02:02:00,
2013-12-12 18:07:00,52.3,40.1,30.07,ENE,65,0.0,0.0,63,0.00,,---,0.00,VWS V14.01,2013-12-13 02:07:00,
2013-12-12 18:12:00,51.9,40.1,30.07,ENE,65,0.0,0.0,64,0.00,,---,0.00,VWS V14.01,2013-12-13 02:12:00,
2013-12-12 18:17:00,51.6,39.8,30.07,ENE,65,0.0,0.0,64,0.00,,---,0.00,VWS V14.01,2013-12-13 02:17:00,
2013-12-12 18:22:00,51.3,39.5,30.07,ENE,65,0.0,0.0,64,0.00,,---,0.00,VWS V14.01,2013-12-13 02:22:00,
2013-12-12 18:32:00,50.7,39.4,30.08,ENE,65,0.0,0.0,65,0.00,,---,0.00,VWS V14.01,2013-12-13 02:32:00,
2013-12-12 18:37:00,50.5,39.2,30.08,ENE,65,0.0,0.0,65,0.00,,---,0.00,VWS V14.01,2013-12-13 02:37:00,
2013-12-12 18:47:00,49.9,38.6,30.08,ENE,65,0.0,0.0,65,0.00,,---,0.00,VWS V14.01,2013-12-13 02:47:00,
2013-12-12 18:52:00,49.8,38.9,30.08,ENE,65,0.0,0.0,66,0.00,,---,0.00,VWS V14.01,2013-12-13 02:52:00,
2013-12-12 19:02:00,49.2,38.7,30.08,ENE,65,0.0,0.0,67,0.00,,---,0.00,VWS V14.01,2013-12-13 03:02:00,
2013-12-12 19:07:00,49.1,38.6,30.08,ENE,65,0.0,0.0,67,0.00,,---,0.00,VWS V14.01,2013-12-13 03:07:00,
2013-12-12 19:12:00,48.8,38.7,30.08,ENE,65,0.0,0.0,68,0.00,,---,0.00,VWS V14.01,2013-12-13 03:12:00,
2013-12-12 19:22:00,48.3,38.2,30.08,ENE,65,0.0,0.0,68,0.00,,---,0.00,VWS V14.01,2013-12-13 03:22:00,
2013-12-12 19:27:00,48.0,38.0,30.08,ENE,65,0.0,0.0,68,0.00,,---,0.00,VWS V14.01,2013-12-13 03:27:00,
2013-12-12 19:37:00,47.6,38.0,30.09,ENE,65,0.0,0.0,69,0.00,,---,0.00,VWS V14.01,2013-12-13 03:37:00,
2013-12-12 19:42:00,47.4,37.8,30.09,ENE,65,0.0,0.0,69,0.00,,---,0.00,VWS V14.01,2013-12-13 03:42:00,
2013-12-12 19:47:00,47.1,37.8,30.09,ENE,65,0.0,0.0,70,0.00,,---,0.00,VWS V14.01,2013-12-13 03:47:00,
2013-12-12 19:57:00,46.7,37.5,30.09,ENE,65,0.0,0.0,70,0.00,,---,0.00,VWS V14.01,2013-12-13 03:57:00,
2013-12-12 20:02:00,46.4,37.5,30.09,ENE,65,0.0,0.0,71,0.00,,---,0.00,VWS V14.01,2013-12-13 04:02:00,
2013-12-12 20:07:00,46.2,37.3,30.09,ENE,65,0.0,0.0,71,0.00,,---,0.00,VWS V14.01,2013-12-13 04:07:00,
2013-12-12 20:17:00,45.8,37.0,30.10,ENE,65,0.0,0.0,71,0.00,,---,0.00,VWS V14.01,2013-12-13 04:17:00,
2013-12-12 20:27:00,45.4,36.9,30.10,ENE,65,0.0,0.0,72,0.00,,---,0.00,VWS V14.01,2013-12-13 04:27:00,
2013-12-12 20:32:00,45.1,36.6,30.11,ENE,65,0.0,0.0,72,0.00,,---,0.00,VWS V14.01,2013-12-13 04:32:00,
2013-12-12 20:37:00,44.9,36.4,30.11,ENE,65,0.0,0.0,72,0.00,,---,0.00,VWS V14.01,2013-12-13 04:37:00,
2013-12-12 20:42:00,44.6,36.2,30.11,ENE,65,0.0,0.0,72,0.00,,---,0.00,VWS V14.01,2013-12-13 04:42:00,
2013-12-12 20:47:00,44.3,36.2,30.11,ENE,65,0.0,0.0,73,0.00,,---,0.00,VWS V14.01,2013-12-13 04:47:00,
2013-12-12 20:52:00,44.2,36.1,30.11,ENE,65,0.0,0.0,73,0.00,,---,0.00,VWS V14.01,2013-12-13 04:52:00,
2013-12-12 20:57:00,44.1,36.4,30.11,ENE,65,0.0,0.0,74,0.00,,---,0.00,VWS V14.01,2013-12-13 04:57:00,
2013-12-12 21:02:00,43.9,36.2,30.11,ENE,65,0.0,0.0,74,0.00,,---,0.00,VWS V14.01,2013-12-13 05:02:00,
2013-12-12 21:07:00,43.8,36.4,30.11,ENE,65,0.0,0.0,75,0.00,,---,0.00,VWS V14.01,2013-12-13 05:07:00,
2013-12-12 21:12:00,43.6,36.2,30.11,ENE,65,0.0,0.0,75,0.00,,---,0.00,VWS V14.01,2013-12-13 05:12:00,
2013-12-12 21:17:00,43.3,35.9,30.10,ENE,65,0.0,0.0,75,0.00,,---,0.00,VWS V14.01,2013-12-13 05:17:00,
2013-12-12 21:22:00,43.3,35.9,30.10,ENE,65,0.0,0.0,75,0.00,,---,0.00,VWS V14.01,2013-12-13 05:22:00,
2013-12-12 21:27:00,43.2,36.2,30.10,ENE,65,0.0,0.0,76,0.00,,---,0.00,VWS V14.01,2013-12-13 05:27:00,
2013-12-12 21:32:00,43.1,36.1,30.10,ENE,65,0.0,0.0,76,0.00,,---,0.00,VWS V14.01,2013-12-13 05:32:00,
2013-12-12 21:37:00,42.9,35.9,30.10,ENE,65,0.0,0.0,76,0.00,,---,0.00,VWS V14.01,2013-12-13 05:37:00,
2013-12-12 21:47:00,42.6,35.9,30.10,ENE,65,0.0,0.0,77,0.00,,---,0.00,VWS V14.01,2013-12-13 05:47:00,
2013-12-12 21:57:00,42.2,35.5,30.10,ENE,65,0.0,0.0,77,0.00,,---,0.00,VWS V14.01,2013-12-13 05:57:00,
2013-12-12 22:02:00,42.1,35.4,30.10,ENE,65,0.0,0.0,77,0.00,,---,0.00,VWS V14.01,2013-12-13 06:02:00,
2013-12-12 22:07:00,41.9,35.2,30.10,ENE,65,0.0,0.0,77,0.00,,---,0.00,VWS V14.01,2013-12-13 06:07:00,
2013-12-12 22:12:00,41.8,35.1,30.10,ENE,65,0.0,0.0,77,0.00,,---,0.00,VWS V14.01,2013-12-13 06:12:00,
2013-12-12 22:22:00,41.3,34.7,30.09,ENE,65,0.0,0.0,77,0.00,,---,0.00,VWS V14.01,2013-12-13 06:22:00,
2013-12-12 22:32:00,40.9,34.3,30.10,ENE,65,0.0,0.0,77,0.00,,---,0.00,VWS V14.01,2013-12-13 06:32:00,
2013-12-12 22:37:00,40.9,34.6,30.10,ENE,65,0.0,0.0,78,0.00,,---,0.00,VWS V14.01,2013-12-13 06:37:00,
2013-12-12 22:42:00,41.1,35.1,30.10,ENE,65,0.0,0.0,79,0.00,,---,0.00,VWS V14.01,2013-12-13 06:42:00,
2013-12-12 22:52:00,41.3,35.3,30.09,ENE,65,0.0,0.0,79,0.00,,---,0.00,VWS V14.01,2013-12-13 06:52:00,
2013-12-12 22:57:00,41.3,35.3,30.09,ENE,65,0.0,0.0,79,0.00,,---,0.00,VWS V14.01,2013-12-13 06:57:00,
2013-12-12 23:07:00,41.3,35.3,30.09,ENE,65,0.0,0.0,79,0.00,,---,0.00,VWS V14.01,2013-12-13 07:07:00,
2013-12-12 23:12:00,41.2,35.2,30.09,ENE,65,0.0,0.0,79,0.00,,---,0.00,VWS V14.01,2013-12-13 07:12:00,
2013-12-12 23:22:00,40.9,35.2,30.08,ENE,65,0.0,0.0,80,0.00,,---,0.00,VWS V14.01,2013-12-13 07:22:00,
2013-12-12 23:27:00,40.8,35.1,30.08,ENE,65,0.0,0.0,80,0.00,,---,0.00,VWS V14.01,2013-12-13 07:27:00,
2013-12-12 23:32:00,40.6,34.9,30.08,ENE,65,0.0,0.0,80,0.00,,---,0.00,VWS V14.01,2013-12-13 07:32:00,
2013-12-12 23:42:00,40.2,34.5,30.08,ENE,65,0.0,0.0,80,0.00,,---,0.00,VWS V14.01,2013-12-13 07:42:00,
2013-12-12 23:47:00,40.1,34.4,30.08,ENE,65,0.0,0.0,80,0.00,,---,0.00,VWS V14.01,2013-12-13 07:47:00,
2013-12-12 23:57:00,39.6,34.0,30.08,ENE,65,0.0,0.0,80,0.00,,---,0.00,VWS V14.01,2013-12-13 07:57:00,